Time,TemperatureF,DewpointF,PressureIn,WindDirection,WindDirectionDegrees,WindSpeedMPH,WindSpeedGustMPH,Humidity,HourlyPrecipIn,Conditions,Clouds,dailyrainin,SoftwareType,DateUTC
2013-02-21 00:00:00,26.0,8.0,30.06,NE,40,1.0,10.0,48,-99.99,,,-99.99,,2013-02-21 05:00:00,
2013-02-21 00:22:00,26.0,8.0,30.06,NE,40,1.0,10.0,48,-99.99,,,-99.99,,2013-02-21 05:22:00,
2013-02-21 00:37:00,26.0,8.0,30.06,NE,40,1.0,10.0,48,-99.99,,,-99.99,,2013-02-21 05:37:00,
2013-02-21 00:46:00,26.0,8.0,30.06,NE,40,1.0,10.0,48,-99.99,,,-99.99,,2013-02-21 05:46:00,
2013-02-21 01:00:00,25.0,9.0,30.06,ENE,66,1.0,12.0,50,-99.99,,,-99.99,,2013-02-21 06:00:00,
2013-02-21 01:21:00,25.0,9.0,30.06,ENE,66,1.0,12.0,50,-99.99,,,-99.99,,2013-02-21 06:21:00,
2013-02-21 01:31:00,25.0,9.0,30.06,ENE,66,1.0,12.0,50,-99.99,,,-99.99,,2013-02-21 06:31:00,
2013-02-21 01:42:00,25.0,9.0,30.06,ENE,66,1.0,12.0,50,-99.99,,,-99.99,,2013-02-21 06:42:00,
2013-02-21 01:52:00,25.0,9.0,30.06,ENE,66,1.0,12.0,50,-99.99,,,-99.99,,2013-02-21 06:52:00,
2013-02-21 03:00:00,24.0,9.0,30.03,ENE,78,0.0,9.0,54,-99.99,,,-99.99,,2013-02-21 08:00:00,
2013-02-21 03:21:00,24.0,9.0,30.03,ENE,78,0.0,9.0,54,-99.99,,,-99.99,,2013-02-21 08:21:00,
2013-02-21 03:32:00,24.0,9.0,30.03,ENE,78,0.0,9.0,54,-99.99,,,-99.99,,2013-02-21 08:32:00,
2013-02-21 03:42:00,24.0,9.0,30.03,ENE,78,0.0,9.0,54,-99.99,,,-99.99,,2013-02-21 08:42:00,
2013-02-21 03:52:00,24.0,9.0,30.03,ENE,78,0.0,9.0,54,-99.99,,,-99.99,,2013-02-21 08:52:00,
2013-02-21 04:00:00,23.0,9.0,30.03,ESE,102,2.0,9.0,56,-99.99,,,-99.99,,2013-02-21 09:00:00,
2013-02-21 04:22:00,23.0,9.0,30.03,ESE,102,2.0,9.0,56,-99.99,,,-99.99,,2013-02-21 09:22:00,
2013-02-21 04:32:00,23.0,9.0,30.03,ESE,102,2.0,9.0,56,-99.99,,,-99.99,,2013-02-21 09:32:00,
2013-02-21 04:42:00,23.0,9.0,30.03,ESE,102,2.0,9.0,56,-99.99,,,-99.99,,2013-02-21 09:42:00,
2013-02-21 04:52:00,23.0,9.0,30.03,ESE,102,2.0,9.0,56,-99.99,,,-99.99,,2013-02-21 09:52:00,
2013-02-21 05:00:00,23.0,9.0,30.06,East,94,7.0,11.0,58,-99.99,,,-99.99,,2013-02-21 10:00:00,
2013-02-21 05:21:00,23.0,9.0,30.06,East,94,7.0,11.0,58,-99.99,,,-99.99,,2013-02-21 10:21:00,
2013-02-21 05:31:00,23.0,9.0,30.06,East,94,7.0,11.0,58,-99.99,,,-99.99,,2013-02-21 10:31:00,
2013-02-21 05:41:00,23.0,9.0,30.06,East,94,7.0,11.0,58,-99.99,,,-99.99,,2013-02-21 10:41:00,
2013-02-21 05:51:00,23.0,9.0,30.06,East,94,7.0,11.0,58,-99.99,,,-99.99,,2013-02-21 10:51:00,
2013-02-21 06:00:00,23.0,9.0,30.06,SSW,209,0.0,10.0,58,-99.99,,,-99.99,,2013-02-21 11:00:00,
2013-02-21 06:21:00,23.0,9.0,30.06,SSW,209,0.0,10.0,58,-99.99,,,-99.99,,2013-02-21 11:21:00,
2013-02-21 06:31:00,23.0,9.0,30.06,SSW,209,0.0,10.0,58,-99.99,,,-99.99,,2013-02-21 11:31:00,
2013-02-21 06:41:00,23.0,9.0,30.06,SSW,209,0.0,10.0,58,-99.99,,,-99.99,,2013-02-21 11:41:00,
2013-02-21 06:52:00,23.0,9.0,30.06,SSW,209,0.0,10.0,58,-99.99,,,-99.99,,2013-02-21 11:52:00,
2013-02-21 07:00:00,24.0,9.0,30.06,SE,126,3.0,9.0,57,-99.99,,,-99.99,,2013-02-21 12:00:00,
2013-02-21 07:22:00,24.0,9.0,30.06,SE,126,3.0,9.0,57,-99.99,,,-99.99,,2013-02-21 12:22:00,
2013-02-21 07:32:00,24.0,9.0,30.06,SE,126,3.0,9.0,57,-99.99,,,-99.99,,2013-02-21 12:32:00,
2013-02-21 07:43:00,24.0,9.0,30.06,SE,126,3.0,9.0,57,-99.99,,,-99.99,,2013-02-21 12:43:00,
2013-02-21 07:53:00,24.0,9.0,30.06,SE,126,3.0,9.0,57,-99.99,,,-99.99,,2013-02-21 12:53:00,
2013-02-21 08:00:00,26.0,11.0,30.09,NNE,33,4.0,9.0,54,-99.99,,,-99.99,,2013-02-21 13:00:00,
2013-02-21 08:22:00,26.0,11.0,30.09,NNE,33,4.0,9.0,54,-99.99,,,-99.99,,2013-02-21 13:22:00,
2013-02-21 08:32:00,26.0,11.0,30.09,NNE,33,4.0,9.0,54,-99.99,,,-99.99,,2013-02-21 13:32:00,
2013-02-21 08:42:00,26.0,11.0,30.09,NNE,33,4.0,9.0,54,-99.99,,,-99.99,,2013-02-21 13:42:00,
2013-02-21 08:52:00,26.0,11.0,30.09,NNE,33,4.0,9.0,54,-99.99,,,-99.99,,2013-02-21 13:52:00,
2013-02-21 09:00:00,29.0,10.0,30.09,SW,217,2.0,22.0,46,-99.99,,,-99.99,,2013-02-21 14:00:00,
2013-02-21 09:22:00,29.0,10.0,30.09,SW,217,2.0,22.0,46,-99.99,,,-99.99,,2013-02-21 14:22:00,
2013-02-21 09:32:00,29.0,10.0,30.09,SW,217,2.0,22.0,46,-99.99,,,-99.99,,2013-02-21 14:32:00,
2013-02-21 09:42:00,29.0,10.0,30.09,SW,217,2.0,22.0,46,-99.99,,,-99.99,,2013-02-21 14:42:00,
2013-02-21 09:52:00,29.0,10.0,30.09,SW,217,2.0,22.0,46,-99.99,,,-99.99,,2013-02-21 14:52:00,
2013-02-21 10:00:00,30.0,9.0,30.09,SSE,148,6.0,27.0,41,-99.99,,,-99.99,,2013-02-21 15:00:00,
2013-02-21 10:22:00,30.0,9.0,30.09,SSE,148,6.0,27.0,41,-99.99,,,-99.99,,2013-02-21 15:22:00,
2013-02-21 10:32:00,30.0,9.0,30.09,SSE,148,6.0,27.0,41,-99.99,,,-99.99,,2013-02-21 15:32:00,
2013-02-21 10:42:00,30.0,9.0,30.09,SSE,148,6.0,27.0,41,-99.99,,,-99.99,,2013-02-21 15:42:00,
2013-02-21 10:52:00,30.0,9.0,30.09,SSE,148,6.0,27.0,41,-99.99,,,-99.99,,2013-02-21 15:52:00,
2013-02-21 12:00:00,34.0,12.0,30.06,SE,139,6.0,30.0,39,-99.99,,,-99.99,,2013-02-21 17:00:00,
2013-02-21 12:22:00,34.0,12.0,30.06,SE,139,6.0,30.0,39,-99.99,,,-99.99,,2013-02-21 17:22:00,
2013-02-21 12:32:00,34.0,12.0,30.06,SE,139,6.0,30.0,39,-99.99,,,-99.99,,2013-02-21 17:32:00,
2013-02-21 12:42:00,34.0,12.0,30.06,SE,139,6.0,30.0,39,-99.99,,,-99.99,,2013-02-21 17:42:00,
2013-02-21 12:52:00,34.0,12.0,30.06,SE,139,6.0,30.0,39,-99.99,,,-99.99,,2013-02-21 17:52:00,
2013-02-21 13:00:00,34.0,12.0,30.03,NE,46,8.0,28.0,40,-99.99,,,-99.99,,2013-02-21 18:00:00,
2013-02-21 13:22:00,34.0,12.0,30.03,NE,46,8.0,28.0,40,-99.99,,,-99.99,,2013-02-21 18:22:00,
2013-02-21 13:32:00,34.0,12.0,30.03,NE,46,8.0,28.0,40,-99.99,,,-99.99,,2013-02-21 18:32:00,
2013-02-21 13:42:00,34.0,12.0,30.03,NE,46,8.0,28.0,40,-99.99,,,-99.99,,2013-02-21 18:42:00,
2013-02-21 13:52:00,34.0,12.0,30.03,NE,46,8.0,28.0,40,-99.99,,,-99.99,,2013-02-21 18:52:00,
2013-02-21 14:00:00,36.0,13.0,30.06,North,8,5.0,32.0,38,-99.99,,,-99.99,,2013-02-21 19:00:00,
2013-02-21 14:22:00,36.0,13.0,30.06,North,8,5.0,32.0,38,-99.99,,,-99.99,,2013-02-21 19:22:00,
2013-02-21 14:32:00,36.0,13.0,30.06,North,8,5.0,32.0,38,-99.99,,,-99.99,,2013-02-21 19:32:00,
2013-02-21 14:42:00,36.0,13.0,30.06,North,8,5.0,32.0,38,-99.99,,,-99.99,,2013-02-21 19:42:00,
2013-02-21 14:52:00,36.0,13.0,30.06,North,8,5.0,32.0,38,-99.99,,,-99.99,,2013-02-21 19:52:00,
2013-02-21 15:00:00,36.0,12.0,30.06,ENE,63,5.0,30.0,37,-99.99,,,-99.99,,2013-02-21 20:00:00,
2013-02-21 15:21:00,36.0,12.0,30.06,ENE,63,5.0,30.0,37,-99.99,,,-99.99,,2013-02-21 20:21:00,
2013-02-21 15:32:00,36.0,12.0,30.06,ENE,63,5.0,30.0,37,-99.99,,,-99.99,,2013-02-21 20:32:00,
2013-02-21 15:42:00,36.0,12.0,30.06,ENE,63,5.0,30.0,37,-99.99,,,-99.99,,2013-02-21 20:42:00,
2013-02-21 15:53:00,36.0,12.0,30.06,ENE,63,5.0,30.0,37,-99.99,,,-99.99,,2013-02-21 20:53:00,
2013-02-21 16:00:00,36.0,13.0,30.06,NE,41,5.0,32.0,38,-99.99,,,-99.99,,2013-02-21 21:00:00,
2013-02-21 16:22:00,36.0,13.0,30.06,NE,41,5.0,32.0,38,-99.99,,,-99.99,,2013-02-21 21:22:00,
2013-02-21 16:32:00,36.0,13.0,30.06,NE,41,5.0,32.0,38,-99.99,,,-99.99,,2013-02-21 21:32:00,
2013-02-21 16:42:00,36.0,13.0,30.06,NE,41,5.0,32.0,38,-99.99,,,-99.99,,2013-02-21 21:42:00,
2013-02-21 16:52:00,36.0,13.0,30.06,NE,41,5.0,32.0,38,-99.99,,,-99.99,,2013-02-21 21:52:00,
2013-02-21 17:00:00,35.0,13.0,30.09,West,277,6.0,25.0,40,-99.99,,,-99.99,,2013-02-21 22:00:00,
2013-02-21 17:22:00,35.0,13.0,30.09,West,277,6.0,25.0,40,-99.99,,,-99.99,,2013-02-21 22:22:00,
2013-02-21 17:32:00,35.0,13.0,30.09,West,277,6.0,25.0,40,-99.99,,,-99.99,,2013-02-21 22:32:00,
2013-02-21 17:42:00,35.0,13.0,30.09,West,277,6.0,25.0,40,-99.99,,,-99.99,,2013-02-21 22:42:00,
2013-02-21 17:52:00,35.0,13.0,30.09,West,277,6.0,25.0,40,-99.99,,,-99.99,,2013-02-21 22:52:00,
2013-02-21 18:00:00,33.0,14.0,30.12,East,91,0.0,20.0,44,-99.99,,,-99.99,,2013-02-21 23:00:00,
2013-02-21 18:21:00,33.0,14.0,30.12,East,91,0.0,20.0,44,-99.99,,,-99.99,,2013-02-21 23:21:00,
2013-02-21 18:32:00,33.0,14.0,30.12,East,91,0.0,20.0,44,-99.99,,,-99.99,,2013-02-21 23:32:00,
2013-02-21 18:42:00,33.0,14.0,30.12,East,91,0.0,20.0,44,-99.99,,,-99.99,,2013-02-21 23:42:00,
2013-02-21 18:53:00,33.0,14.0,30.12,East,91,0.0,20.0,44,-99.99,,,-99.99,,2013-02-21 23:53:00,
2013-02-21 19:00:00,32.0,14.0,30.18,ENE,74,2.0,9.0,49,-99.99,,,-99.99,,2013-02-22 00:00:00,
2013-02-21 19:32:00,32.0,14.0,30.18,ENE,74,2.0,9.0,49,-99.99,,,-99.99,,2013-02-22 00:32:00,
2013-02-21 19:42:00,32.0,14.0,30.18,ENE,74,2.0,9.0,49,-99.99,,,-99.99,,2013-02-22 00:42:00,
2013-02-21 19:52:00,32.0,14.0,30.18,ENE,74,2.0,9.0,49,-99.99,,,-99.99,,2013-02-22 00:52:00,
2013-02-21 20:00:00,31.0,15.0,30.21,ESE,113,7.0,10.0,51,-99.99,,,-99.99,,2013-02-22 01:00:00,
2013-02-21 20:32:00,31.0,15.0,30.21,ESE,113,7.0,10.0,51,-99.99,,,-99.99,,2013-02-22 01:32:00,
2013-02-21 20:42:00,31.0,15.0,30.21,ESE,113,7.0,10.0,51,-99.99,,,-99.99,,2013-02-22 01:42:00,
2013-02-21 20:52:00,31.0,15.0,30.21,ESE,113,7.0,10.0,51,-99.99,,,-99.99,,2013-02-22 01:52:00,
2013-02-21 21:00:00,30.0,15.0,30.21,ESE,106,3.0,10.0,54,-99.99,,,-99.99,,2013-02-22 02:00:00,
2013-02-21 21:32:00,30.0,15.0,30.21,ESE,106,3.0,10.0,54,-99.99,,,-99.99,,2013-02-22 02:32:00,
2013-02-21 21:42:00,30.0,15.0,30.21,ESE,106,3.0,10.0,54,-99.99,,,-99.99,,2013-02-22 02:42:00,
2013-02-21 21:52:00,30.0,15.0,30.21,ESE,106,3.0,10.0,54,-99.99,,,-99.99,,2013-02-22 02:52:00,
2013-02-21 22:00:00,29.0,15.0,30.24,ESE,122,1.0,10.0,56,-99.99,,,-99.99,,2013-02-22 03:00:00,
2013-02-21 22:22:00,29.0,15.0,30.24,ESE,122,1.0,10.0,56,-99.99,,,-99.99,,2013-02-22 03:22:00,
2013-02-21 22:32:00,29.0,15.0,30.24,ESE,122,1.0,10.0,56,-99.99,,,-99.99,,2013-02-22 03:32:00,
2013-02-21 22:42:00,29.0,15.0,30.24,ESE,122,1.0,10.0,56,-99.99,,,-99.99,,2013-02-22 03:42:00,
2013-02-21 22:52:00,29.0,15.0,30.24,ESE,122,1.0,10.0,56,-99.99,,,-99.99,,2013-02-22 03:52:00,
2013-02-21 23:00:00,29.0,15.0,30.24,SE,135,6.0,11.0,58,-99.99,,,-99.99,,2013-02-22 04:00:00,
2013-02-21 23:21:00,29.0,15.0,30.24,SE,135,6.0,11.0,58,-99.99,,,-99.99,,2013-02-22 04:21:00,
2013-02-21 23:32:00,29.0,15.0,30.24,SE,135,6.0,11.0,58,-99.99,,,-99.99,,2013-02-22 04:32:00,
2013-02-21 23:42:00,29.0,15.0,30.24,SE,135,6.0,11.0,58,-99.99,,,-99.99,,2013-02-22 04:42:00,
2013-02-21 23:52:00,29.0,15.0,30.24,SE,135,6.0,11.0,58,-99.99,,,-99.99,,2013-02-22 04:52:00,